Time;durP1;ratioP1;P1;durP2;ratioP2;P2;SDS_P1;SDS_P2;PMS_P1;PMS_P2;Temp;Humidity;BMP_temperature;BMP_pressure;BME280_temperature;BME280_humidity;BME280_pressure;Samples;Min_cycle;Max_cycle;Signal;HPM_P1;HPM_P2
2023/04/30 07:56:04;;;;;;;3.67;3.45;;;16.80;73.40;;;;;;6213354;22;20211;-70
2023/04/30 07:58:31;;;;;;;2.97;2.80;;;17.40;63.20;;;;;;6216360;23;20184;-70
2023/04/30 08:00:58;;;;;;;3.80;3.50;;;17.30;60.90;;;;;;6216285;23;20637;-70
2023/04/30 08:03:24;;;;;;;3.97;3.67;;;16.90;56.40;;;;;;6216719;23;20171;-70
2023/04/30 08:05:52;;;;;;;3.72;3.45;;;16.40;64.30;;;;;;6216438;23;20196;-70
2023/04/30 08:08:19;;;;;;;4.10;3.80;;;16.30;62.30;;;;;;6216637;22;20576;-67
2023/04/30 08:10:46;;;;;;;3.15;2.95;;;16.00;63.70;;;;;;6216532;23;20179;-67
2023/04/30 08:13:14;;;;;;;2.70;2.60;;;16.10;72.80;;;;;;6216065;23;20645;-67
2023/04/30 08:15:41;;;;;;;2.30;2.20;;;16.40;70.80;;;;;;6216567;23;20183;-67
2023/04/30 08:18:08;;;;;;;2.78;2.67;;;16.50;64.10;;;;;;6216553;23;20359;-67
2023/04/30 08:20:35;;;;;;;2.70;2.50;;;17.80;56.20;;;;;;6216917;23;20183;-66
2023/04/30 08:23:02;;;;;;;2.40;2.30;;;18.40;49.20;;;;;;6216682;23;20203;-66
2023/04/30 08:25:30;;;;;;;3.33;3.13;;;18.80;46.20;;;;;;6216757;23;20172;-67
2023/04/30 08:27:57;;;;;;;2.63;2.42;;;18.50;46.20;;;;;;6216458;23;20200;-66
2023/04/30 08:30:25;;;;;;;2.95;2.75;;;17.90;50.70;;;;;;6216555;23;20637;-67
2023/04/30 08:32:51;;;;;;;2.85;2.70;;;17.70;50.10;;;;;;6216270;23;20530;-67
2023/04/30 08:35:18;;;;;;;2.63;2.53;;;17.30;51.30;;;;;;6216566;23;20179;-67
2023/04/30 08:37:45;;;;;;;2.80;2.65;;;16.60;55.60;;;;;;6216486;23;20192;-67
2023/04/30 08:40:12;;;;;;;3.10;2.90;;;16.30;58.50;;;;;;6216664;23;20180;-67
2023/04/30 08:42:45;;;;;;;2.50;2.40;;;16.10;61.70;;;;;;6216425;23;20184;-68
2023/04/30 08:45:13;;;;;;;3.22;3.03;;;16.10;61.50;;;;;;6216663;23;20160;-67
2023/04/30 08:47:41;;;;;;;2.55;2.45;;;15.70;63.20;;;;;;6216464;23;20278;-67
2023/04/30 08:50:09;;;;;;;3.30;3.10;;;15.40;67.60;;;;;;6216578;23;20187;-67
2023/04/30 08:52:38;;;;;;;4.43;4.03;;;15.10;72.90;;;;;;6216344;23;20628;-67
2023/04/30 08:55:08;;;;;;;2.97;2.78;;;15.00;72.40;;;;;;6216437;23;20181;-67
2023/04/30 08:57:35;;;;;;;3.53;3.33;;;14.70;79.50;;;;;;6216085;23;20698;-68
2023/04/30 09:00:02;;;;;;;3.10;2.90;;;14.40;83.80;;;;;;6216647;23;20192;-67
2023/04/30 09:02:31;;;;;;;3.20;3.00;;;14.40;92.60;;;;;;6216494;23;20242;-68
2023/04/30 09:04:59;;;;;;;2.85;2.70;;;14.50;81.20;;;;;;6216490;23;20179;-67
2023/04/30 09:07:27;;;;;;;3.50;3.30;;;14.50;84.90;;;;;;6215919;23;20247;-67
2023/04/30 09:09:54;;;;;;;3.20;3.00;;;14.50;92.30;;;;;;6216450;23;20173;-67
2023/04/30 09:12:21;;;;;;;2.97;2.78;;;14.70;91.80;;;;;;6216879;23;20173;-67
2023/04/30 09:15:02;;;;;;;3.70;3.50;;;14.80;85.20;;;;;;6216968;23;20173;-68
2023/04/30 09:17:29;;;;;;;2.92;2.83;;;14.80;82.40;;;;;;6217540;23;20223;-67
2023/04/30 09:20:08;;;;;;;3.17;2.97;;;15.10;82.60;;;;;;6217517;23;20533;-66
2023/04/30 09:22:36;;;;;;;2.50;2.30;;;15.00;74.10;;;;;;6229271;23;20157;-67
2023/04/30 09:25:03;;;;;;;3.33;3.03;;;15.00;77.10;;;;;;6236199;23;20185;-67
2023/04/30 09:27:30;;;;;;;2.97;2.78;;;15.00;74.60;;;;;;6226310;23;20200;-67
2023/04/30 09:29:57;;;;;;;2.55;2.45;;;14.90;77.20;;;;;;6222420;23;20176;-67
2023/04/30 09:32:24;;;;;;;2.22;2.13;;;14.80;79.70;;;;;;6216248;23;20184;-68
2023/04/30 09:34:51;;;;;;;2.92;2.72;;;15.00;84.80;;;;;;6216249;23;20188;-66
2023/04/30 09:37:19;;;;;;;2.80;2.65;;;15.20;75.90;;;;;;6215753;23;20224;-66
2023/04/30 09:39:50;;;;;;;2.45;2.35;;;15.50;73.20;;;;;;6216184;23;20180;-66
2023/04/30 09:42:18;;;;;;;4.57;3.00;;;15.50;69.80;;;;;;6216103;23;20165;-65
2023/04/30 09:44:44;;;;;;;3.53;3.30;;;15.30;69.60;;;;;;6215989;23;20208;-66
2023/04/30 09:47:13;;;;;;;2.67;2.58;;;15.00;71.00;;;;;;6215980;23;20283;-66
2023/04/30 09:49:42;;;;;;;2.28;2.17;;;14.90;75.90;;;;;;6215969;23;20661;-66
2023/04/30 09:52:10;;;;;;;2.53;2.33;;;15.00;74.10;;;;;;6216170;23;20177;-66
2023/04/30 09:54:39;;;;;;;2.33;2.22;;;15.00;75.70;;;;;;6215919;23;20177;-67
2023/04/30 09:57:09;;;;;;;3.10;2.80;;;15.00;75.30;;;;;;6217572;23;20193;-67
2023/04/30 09:59:36;;;;;;;2.60;2.50;;;15.00;84.90;;;;;;6218453;23;20165;-67
2023/04/30 10:02:05;;;;;;;2.97;2.42;;;15.20;74.00;;;;;;6223729;23;20266;-67
2023/04/30 10:04:34;;;;;;;3.50;2.28;;;15.20;65.90;;;;;;6232267;23;20177;-67
2023/04/30 10:07:04;;;;;;;2.97;2.10;;;15.20;72.50;;;;;;6231304;23;20207;-67
2023/04/30 10:09:40;;;;;;;2.25;2.15;;;15.50;74.10;;;;;;6220517;23;20220;-67
2023/04/30 10:12:10;;;;;;;2.38;2.17;;;16.00;67.60;;;;;;6218401;23;20160;-66
2023/04/30 10:14:37;;;;;;;2.30;2.20;;;16.30;62.70;;;;;;6218647;23;20172;-67
2023/04/30 10:17:11;;;;;;;2.25;2.15;;;16.20;59.60;;;;;;6217806;23;20216;-66
2023/04/30 10:19:41;;;;;;;2.08;1.73;;;16.00;58.70;;;;;;6217633;23;20157;-66
2023/04/30 10:22:09;;;;;;;2.42;2.33;;;15.80;59.50;;;;;;6217791;23;20543;-67
2023/04/30 11:43:25;;;;;;;1.67;1.58;;;16.80;49.40;;;;;;6229097;22;20266;-69
2023/04/30 11:46:07;;;;;;;2.35;2.20;;;17.10;50.40;;;;;;6246754;22;20282;-71
2023/04/30 11:48:35;;;;;;;2.33;1.90;;;17.30;47.90;;;;;;6247999;22;20176;-71
2023/04/30 11:51:15;;;;;;;2.00;1.90;;;17.20;49.70;;;;;;6252544;22;20168;-68
2023/04/30 11:53:43;;;;;;;2.22;2.00;;;17.30;49.80;;;;;;6253086;22;20659;-69
2023/04/30 11:56:10;;;;;;;3.53;1.70;;;17.20;46.00;;;;;;6252387;22;20176;-69
2023/04/30 11:58:39;;;;;;;2.20;2.10;;;17.30;48.00;;;;;;6251998;22;20598;-69
2023/04/30 12:01:08;;;;;;;1.45;1.45;;;17.40;47.70;;;;;;6252719;22;20168;-71
2023/04/30 12:03:42;;;;;;;1.63;1.63;;;17.40;46.80;;;;;;6253333;22;20202;-69
2023/04/30 12:06:11;;;;;;;1.80;1.70;;;17.60;46.20;;;;;;6252983;22;20238;-70
2023/04/30 12:08:40;;;;;;;1.80;1.73;;;17.80;44.20;;;;;;6254154;22;20525;-70
2023/04/30 12:11:23;;;;;;;2.17;1.80;;;17.80;45.40;;;;;;6252025;22;20199;-68
2023/04/30 12:13:53;;;;;;;1.80;1.70;;;17.50;44.50;;;;;;6252434;22;20210;-69
2023/04/30 12:16:20;;;;;;;1.63;1.63;;;17.10;44.80;;;;;;6252384;22;20171;-70
2023/04/30 12:18:48;;;;;;;1.52;1.52;;;17.00;48.30;;;;;;6253591;22;20250;-69
2023/04/30 12:21:16;;;;;;;1.90;1.80;;;17.10;48.80;;;;;;6253507;22;20183;-69
2023/04/30 12:23:46;;;;;;;2.05;1.75;;;16.90;46.40;;;;;;6250653;22;20274;-70
2023/04/30 12:26:13;;;;;;;1.75;1.65;;;16.80;49.40;;;;;;6252832;22;20153;-70
2023/04/30 12:28:41;;;;;;;1.40;1.40;;;16.80;49.00;;;;;;6251763;22;20217;-70
2023/04/30 12:31:09;;;;;;;2.30;2.17;;;17.00;49.30;;;;;;6247951;22;20234;-72
2023/04/30 12:33:35;;;;;;;3.55;1.60;;;17.10;48.40;;;;;;6246868;22;20199;-71
2023/04/30 12:36:02;;;;;;;1.48;1.45;;;16.90;44.30;;;;;;6246518;22;20633;-72
2023/04/30 12:38:29;;;;;;;1.77;1.67;;;16.60;47.20;;;;;;6247845;22;20172;-71
2023/04/30 12:40:57;;;;;;;1.70;1.60;;;16.60;48.40;;;;;;6256528;22;20203;-72
2023/04/30 12:43:23;;;;;;;2.42;2.22;;;16.50;48.90;;;;;;6257251;22;20196;-71
2023/04/30 12:45:52;;;;;;;1.60;1.60;;;16.50;50.10;;;;;;6255318;22;20668;-72
2023/04/30 12:48:22;;;;;;;1.42;1.33;;;16.50;49.40;;;;;;6255651;22;20196;-72
2023/04/30 12:50:52;;;;;;;1.83;1.70;;;16.70;50.30;;;;;;6252481;22;20198;-72
2023/04/30 12:53:20;;;;;;;1.60;1.50;;;16.80;49.00;;;;;;6248192;22;20203;-71
2023/04/30 12:56:09;;;;;;;1.85;1.80;;;16.90;48.20;;;;;;6248080;22;20176;-72
2023/04/30 12:58:35;;;;;;;1.95;1.85;;;17.00;48.10;;;;;;6247363;22;20209;-71
2023/04/30 13:01:02;;;;;;;1.50;1.50;;;16.80;47.70;;;;;;6246731;22;20655;-72
2023/04/30 13:03:30;;;;;;;1.50;1.40;;;17.10;48.60;;;;;;6246773;22;20196;-71
2023/04/30 13:05:58;;;;;;;1.55;1.50;;;17.30;46.70;;;;;;6247052;22;20193;-71
2023/04/30 13:08:25;;;;;;;1.30;1.30;;;17.40;45.20;;;;;;6246701;22;20202;-71
2023/04/30 13:10:51;;;;;;;1.50;1.40;;;17.60;45.20;;;;;;6247019;22;20229;-71
2023/04/30 13:13:19;;;;;;;1.40;1.40;;;17.80;44.20;;;;;;6246781;22;20210;-71
2023/04/30 13:15:45;;;;;;;2.00;2.00;;;17.90;43.80;;;;;;6247085;22;20214;-72
2023/04/30 13:18:14;;;;;;;2.00;1.90;;;18.00;43.00;;;;;;6246474;22;20628;-71
2023/04/30 13:20:43;;;;;;;1.92;1.58;;;17.80;42.40;;;;;;6247041;22;20168;-70
2023/04/30 13:23:11;;;;;;;1.70;1.70;;;17.60;43.80;;;;;;6246520;22;20195;-70
2023/04/30 13:25:40;;;;;;;1.80;1.70;;;17.50;43.50;;;;;;6246297;22;20670;-70
2023/04/30 13:28:07;;;;;;;1.88;1.77;;;17.30;43.10;;;;;;6246411;22;20274;-70
2023/04/30 13:30:34;;;;;;;1.70;1.70;;;17.10;46.00;;;;;;6246714;22;20183;-70
2023/04/30 13:33:01;;;;;;;1.63;1.52;;;17.10;46.30;;;;;;6248419;22;20198;-70
2023/04/30 13:35:28;;;;;;;2.10;1.90;;;16.80;45.90;;;;;;6248512;22;20179;-70
2023/04/30 13:37:59;;;;;;;2.10;2.00;;;16.90;47.50;;;;;;6248625;22;20168;-70
2023/04/30 13:40:26;;;;;;;1.80;1.80;;;16.70;47.60;;;;;;6248495;22;20164;-70
2023/04/30 13:42:52;;;;;;;1.80;1.70;;;16.70;50.30;;;;;;6248291;22;20196;-70
2023/04/30 13:45:19;;;;;;;2.15;2.05;;;16.50;50.30;;;;;;6248181;22;20184;-70
2023/04/30 13:47:46;;;;;;;1.80;1.70;;;16.00;50.40;;;;;;6248412;22;20192;-70
2023/04/30 13:50:13;;;;;;;2.00;1.90;;;16.30;52.20;;;;;;6247944;22;20663;-71
2023/04/30 13:52:39;;;;;;;1.45;1.35;;;16.40;53.80;;;;;;6248521;22;20203;-70
2023/04/30 13:55:09;;;;;;;1.73;1.70;;;16.60;50.40;;;;;;6248545;22;20172;-70
2023/04/30 13:57:37;;;;;;;1.75;1.65;;;16.50;49.80;;;;;;6248598;22;20203;-71
2023/04/30 14:00:04;;;;;;;1.70;1.60;;;16.50;52.80;;;;;;6248291;22;20617;-69
2023/04/30 14:02:31;;;;;;;1.70;1.60;;;16.80;52.40;;;;;;6248563;22;20214;-69
2023/04/30 14:04:58;;;;;;;1.65;1.63;;;17.00;48.80;;;;;;6248528;22;20156;-71
2023/04/30 14:07:25;;;;;;;3.17;1.80;;;17.20;46.20;;;;;;6248349;22;20171;-70
2023/04/30 14:09:52;;;;;;;2.00;1.90;;;17.00;47.50;;;;;;6248451;22;20500;-70
2023/04/30 14:12:22;;;;;;;1.52;1.52;;;17.00;44.70;;;;;;6248160;22;20199;-70
2023/04/30 14:14:49;;;;;;;1.30;1.30;;;17.00;46.90;;;;;;6248516;22;20247;-70
2023/04/30 14:17:16;;;;;;;3.15;1.70;;;16.90;48.60;;;;;;6247913;22;20186;-71
2023/04/30 14:19:43;;;;;;;1.60;1.60;;;17.00;48.20;;;;;;6249008;22;20179;-70
2023/04/30 14:22:09;;;;;;;1.45;1.35;;;17.10;48.10;;;;;;6248192;22;20196;-71
2023/04/30 14:24:36;;;;;;;1.80;1.70;;;17.20;47.30;;;;;;6248478;22;20179;-70
2023/04/30 14:27:03;;;;;;;1.80;1.70;;;17.20;45.00;;;;;;6248316;22;20206;-70
2023/04/30 14:29:31;;;;;;;2.58;1.58;;;17.10;46.20;;;;;;6248735;22;20219;-70
2023/04/30 14:31:58;;;;;;;1.48;1.48;;;16.90;47.10;;;;;;6248306;22;20168;-71
2023/04/30 14:34:26;;;;;;;1.33;1.33;;;16.70;46.30;;;;;;6248365;22;20176;-70
2023/04/30 14:36:53;;;;;;;1.45;1.45;;;16.70;47.50;;;;;;6248793;22;20172;-71
2023/04/30 14:39:19;;;;;;;1.58;1.30;;;16.90;48.40;;;;;;6249002;22;20168;-70
2023/04/30 14:41:46;;;;;;;1.40;1.40;;;17.00;46.90;;;;;;6249307;22;20172;-70
2023/04/30 14:44:13;;;;;;;1.83;1.73;;;17.10;45.70;;;;;;6247946;22;20176;-70
2023/04/30 14:46:41;;;;;;;1.75;1.55;;;16.90;45.90;;;;;;6247636;22;20183;-71
2023/04/30 14:49:08;;;;;;;1.52;1.52;;;16.80;46.60;;;;;;6247693;22;20202;-71
2023/04/30 14:51:35;;;;;;;2.10;1.40;;;16.70;46.50;;;;;;6247879;22;20183;-71
2023/04/30 14:54:02;;;;;;;2.40;1.88;;;16.60;47.50;;;;;;6247598;22;20283;-70
2023/04/30 14:56:29;;;;;;;1.77;1.67;;;16.60;48.00;;;;;;6246987;22;20629;-70
2023/04/30 14:58:55;;;;;;;1.70;1.60;;;16.60;51.20;;;;;;6248924;22;20156;-70
2023/04/30 15:01:23;;;;;;;1.77;1.70;;;16.70;48.30;;;;;;6249024;22;20207;-71
2023/04/30 15:03:51;;;;;;;1.45;1.40;;;16.60;47.10;;;;;;6247339;22;20196;-71
2023/04/30 15:06:18;;;;;;;1.30;1.30;;;16.50;46.20;;;;;;6248442;22;20186;-71
2023/04/30 15:08:45;;;;;;;1.92;1.77;;;16.50;47.10;;;;;;6247371;22;20192;-71
2023/04/30 15:11:12;;;;;;;1.45;1.40;;;16.40;47.60;;;;;;6247516;22;20183;-71
2023/04/30 15:13:39;;;;;;;1.67;1.67;;;16.40;47.40;;;;;;6247456;22;20673;-72
2023/04/30 15:16:07;;;;;;;2.78;1.60;;;16.40;47.90;;;;;;6247584;22;20156;-71
2023/04/30 15:18:34;;;;;;;1.52;1.42;;;16.30;50.00;;;;;;6247771;22;20153;-71
2023/04/30 15:21:02;;;;;;;1.50;1.50;;;16.20;47.60;;;;;;6247610;22;20160;-71
2023/04/30 15:23:29;;;;;;;1.88;1.77;;;16.10;48.80;;;;;;6246939;22;20700;-70
2023/04/30 15:25:56;;;;;;;1.55;1.55;;;16.00;52.60;;;;;;6247502;22;20161;-70
2023/04/30 15:28:24;;;;;;;1.70;1.70;;;16.00;50.30;;;;;;6247718;22;20234;-71
2023/04/30 15:30:51;;;;;;;1.65;1.55;;;16.10;50.40;;;;;;6247041;22;20667;-71
2023/04/30 15:33:18;;;;;;;1.73;1.67;;;16.10;50.30;;;;;;6247281;22;20227;-71
2023/04/30 15:35:46;;;;;;;1.60;1.50;;;16.10;49.20;;;;;;6247620;22;20161;-71
2023/04/30 15:38:14;;;;;;;1.50;1.50;;;16.10;49.70;;;;;;6247102;22;20531;-71
2023/04/30 15:40:41;;;;;;;1.40;1.40;;;16.20;49.60;;;;;;6247068;22;20691;-71
2023/04/30 15:43:07;;;;;;;1.80;1.77;;;16.20;48.30;;;;;;6246903;22;20192;-71
2023/04/30 15:45:34;;;;;;;1.55;1.45;;;16.10;48.80;;;;;;6247784;22;20203;-71
2023/04/30 15:48:01;;;;;;;1.52;1.48;;;16.10;47.80;;;;;;6248068;22;20621;-70
2023/04/30 15:50:28;;;;;;;1.58;1.50;;;16.10;47.90;;;;;;6247644;22;20175;-70
2023/04/30 15:52:55;;;;;;;1.15;1.15;;;16.10;48.80;;;;;;6247319;22;20537;-70
2023/04/30 15:55:24;;;;;;;1.55;1.55;;;16.20;48.90;;;;;;6247525;22;20188;-71
2023/04/30 15:57:51;;;;;;;1.92;1.83;;;16.30;49.10;;;;;;6247185;22;20490;-71
2023/04/30 16:00:18;;;;;;;1.50;1.50;;;16.20;48.40;;;;;;6247329;22;20176;-70
2023/04/30 16:02:44;;;;;;;1.50;1.50;;;16.00;48.70;;;;;;6247041;22;20192;-70
2023/04/30 16:05:11;;;;;;;1.40;1.38;;;15.90;50.40;;;;;;6247168;22;20472;-70
2023/04/30 16:07:38;;;;;;;1.70;1.60;;;15.90;50.10;;;;;;6247236;22;20210;-71
2023/04/30 16:10:06;;;;;;;2.03;1.92;;;15.80;50.10;;;;;;6247037;22;20555;-70
2023/04/30 16:12:35;;;;;;;1.70;1.70;;;15.70;51.00;;;;;;6246598;22;20223;-70
2023/04/30 16:15:03;;;;;;;1.90;1.90;;;15.70;53.20;;;;;;6247008;22;20250;-70
2023/04/30 16:17:31;;;;;;;1.63;1.63;;;15.70;51.00;;;;;;6246575;22;20510;-70
2023/04/30 16:19:58;;;;;;;1.67;1.58;;;15.60;52.70;;;;;;6247008;22;20173;-71
2023/04/30 16:22:27;;;;;;;1.70;1.70;;;15.60;52.10;;;;;;6247298;22;20192;-70
2023/04/30 16:24:53;;;;;;;1.65;1.63;;;15.60;51.30;;;;;;6247086;22;20258;-71
2023/04/30 16:27:20;;;;;;;1.65;1.60;;;15.50;51.10;;;;;;6247102;22;20180;-71
2023/04/30 16:29:48;;;;;;;1.55;1.50;;;15.40;51.00;;;;;;6246793;22;20192;-71
2023/04/30 16:32:15;;;;;;;1.35;1.35;;;15.30;51.80;;;;;;6246766;22;20222;-71
2023/04/30 16:34:41;;;;;;;1.27;1.27;;;15.30;53.90;;;;;;6246761;22;20183;-70
2023/04/30 16:37:09;;;;;;;1.33;1.33;;;15.20;52.70;;;;;;6246720;22;20195;-69
2023/04/30 16:39:36;;;;;;;1.30;1.30;;;15.20;53.40;;;;;;6246269;22;20506;-70
2023/04/30 16:42:02;;;;;;;1.30;1.30;;;15.20;54.30;;;;;;6246574;22;20172;-68
2023/04/30 16:44:29;;;;;;;2.08;1.40;;;15.20;54.90;;;;;;6246239;22;20515;-70
2023/04/30 16:46:58;;;;;;;1.45;1.45;;;15.20;53.70;;;;;;6246282;22;20467;-69
2023/04/30 16:49:25;;;;;;;1.60;1.60;;;15.00;56.50;;;;;;6246395;22;20249;-69
2023/04/30 16:51:52;;;;;;;1.50;1.50;;;14.90;56.70;;;;;;6246381;22;20172;-69
2023/04/30 16:54:18;;;;;;;3.42;1.65;;;14.90;58.40;;;;;;6246563;22;20206;-70
2023/04/30 16:56:45;;;;;;;1.33;1.25;;;14.80;58.50;;;;;;6246631;22;20179;-69
2023/04/30 16:59:12;;;;;;;2.03;1.98;;;14.80;59.70;;;;;;6246858;22;20190;-68
2023/04/30 17:01:38;;;;;;;1.88;1.88;;;14.70;61.60;;;;;;6247017;22;20171;-68
2023/04/30 17:04:07;;;;;;;1.48;1.48;;;14.70;62.10;;;;;;6246866;22;20199;-68
2023/04/30 17:06:34;;;;;;;1.88;1.88;;;14.70;62.80;;;;;;6246113;22;20214;-68
2023/04/30 17:09:01;;;;;;;1.80;1.70;;;14.60;64.00;;;;;;6246449;22;20202;-68
2023/04/30 17:11:28;;;;;;;1.92;1.77;;;14.50;65.20;;;;;;6246648;22;20183;-69
2023/04/30 17:13:55;;;;;;;1.60;1.60;;;14.50;66.10;;;;;;6248337;22;20580;-69
2023/04/30 17:16:23;;;;;;;1.50;1.50;;;14.40;67.70;;;;;;6248787;22;20172;-68
2023/04/30 17:18:50;;;;;;;1.75;1.65;;;14.30;68.40;;;;;;6250122;22;20172;-68
2023/04/30 17:21:18;;;;;;;1.73;1.73;;;14.30;69.50;;;;;;6248806;22;20176;-68
2023/04/30 17:23:44;;;;;;;2.00;1.90;;;14.30;70.50;;;;;;6248957;22;20221;-69
2023/04/30 17:26:11;;;;;;;1.83;1.60;;;14.20;71.30;;;;;;6247254;22;20180;-70
2023/04/30 17:28:38;;;;;;;2.22;2.10;;;14.10;71.90;;;;;;6246337;22;20176;-69
2023/04/30 17:31:06;;;;;;;2.92;2.28;;;14.10;73.20;;;;;;6246115;22;20630;-69
2023/04/30 17:33:33;;;;;;;2.17;2.05;;;14.10;75.60;;;;;;6246565;22;20274;-68
2023/04/30 17:35:59;;;;;;;2.25;2.05;;;14.00;74.60;;;;;;6246248;22;20172;-68
2023/04/30 17:38:27;;;;;;;2.20;2.10;;;14.00;77.90;;;;;;6246472;22;20180;-69
2023/04/30 17:40:55;;;;;;;2.95;2.10;;;13.90;78.70;;;;;;6246151;22;20172;-69
2023/04/30 17:43:22;;;;;;;2.03;1.92;;;13.90;79.90;;;;;;6245973;22;20196;-69
2023/04/30 17:45:49;;;;;;;2.25;2.08;;;13.80;81.30;;;;;;6246706;22;20649;-68
2023/04/30 17:48:16;;;;;;;2.00;2.00;;;13.80;83.90;;;;;;6246353;22;20200;-69
2023/04/30 17:50:43;;;;;;;1.80;1.80;;;13.90;85.20;;;;;;6245951;22;20188;-69
2023/04/30 17:53:10;;;;;;;1.90;1.80;;;13.80;87.70;;;;;;6246268;22;20203;-70
2023/04/30 17:55:39;;;;;;;1.88;1.63;;;13.80;87.50;;;;;;6246288;22;20251;-71
2023/04/30 17:58:10;;;;;;;1.80;1.70;;;13.80;89.10;;;;;;6246373;22;20230;-70
2023/04/30 18:00:39;;;;;;;2.25;2.13;;;13.80;89.90;;;;;;6247159;22;20172;-69
2023/04/30 18:03:05;;;;;;;2.70;1.83;;;13.70;89.90;;;;;;6246653;22;20230;-70
2023/04/30 18:05:33;;;;;;;2.20;2.10;;;13.70;90.70;;;;;;6246730;22;20176;-74
2023/04/30 18:08:00;;;;;;;1.90;1.90;;;13.60;91.40;;;;;;6246286;22;20179;-69
2023/04/30 18:10:27;;;;;;;2.35;2.15;;;13.60;92.20;;;;;;6245516;22;20657;-70
2023/04/30 18:12:58;;;;;;;1.80;1.70;;;13.60;92.90;;;;;;6246730;22;20196;-70
2023/04/30 18:15:24;;;;;;;1.90;1.80;;;13.50;93.70;;;;;;6246087;22;20161;-70
2023/04/30 18:17:51;;;;;;;2.17;2.08;;;13.50;94.30;;;;;;6246799;22;20199;-70
2023/04/30 18:20:18;;;;;;;1.52;1.52;;;13.50;94.80;;;;;;6247905;22;20202;-70
2023/04/30 18:22:45;;;;;;;2.10;2.00;;;13.40;95.30;;;;;;6250787;22;20196;-70
2023/04/30 18:25:13;;;;;;;1.77;1.67;;;13.40;95.40;;;;;;6245397;22;20193;-68
2023/04/30 18:27:40;;;;;;;1.50;1.50;;;13.30;97.00;;;;;;6217817;23;20657;-68
2023/04/30 18:30:10;;;;;;;1.80;1.80;;;13.30;97.50;;;;;;6217792;23;20192;-66
2023/04/30 18:32:37;;;;;;;1.85;1.80;;;13.30;98.90;;;;;;6217977;23;20176;-68
2023/04/30 18:35:04;;;;;;;2.05;1.92;;;13.20;99.10;;;;;;6217702;23;20200;-67
2023/04/30 18:37:31;;;;;;;2.35;2.25;;;13.20;99.90;;;;;;6217777;23;20204;-68
2023/04/30 18:39:58;;;;;;;2.47;2.28;;;13.10;99.90;;;;;;6217948;23;20225;-66
2023/04/30 18:42:24;;;;;;;2.22;2.08;;;13.00;99.90;;;;;;6217893;23;20553;-67
2023/04/30 18:44:51;;;;;;;2.08;1.98;;;12.90;99.90;;;;;;6217799;23;20184;-67
2023/04/30 18:47:19;;;;;;;2.30;2.20;;;12.90;99.90;;;;;;6217856;23;20180;-67
2023/04/30 18:49:45;;;;;;;1.90;1.80;;;12.80;99.90;;;;;;6217162;23;20189;-66
2023/04/30 18:52:12;;;;;;;2.20;2.10;;;12.70;99.90;;;;;;6217393;23;20181;-70
2023/04/30 18:54:40;;;;;;;1.98;1.88;;;12.70;99.90;;;;;;6217065;23;20633;-67
2023/04/30 18:57:09;;;;;;;2.40;2.20;;;12.60;99.90;;;;;;6217412;23;20308;-67
2023/04/30 18:59:37;;;;;;;2.28;2.17;;;12.50;99.90;;;;;;6216806;23;20544;-68
2023/04/30 19:02:04;;;;;;;2.90;1.90;;;12.40;99.90;;;;;;6216867;23;20648;-67
2023/04/30 19:04:32;;;;;;;1.67;1.67;;;12.40;99.90;;;;;;6216971;23;20597;-69
2023/04/30 19:06:59;;;;;;;2.33;2.15;;;12.40;99.90;;;;;;6217209;23;20200;-65
2023/04/30 19:09:26;;;;;;;2.30;2.10;;;12.30;99.90;;;;;;6217221;23;20233;-69
2023/04/30 19:11:52;;;;;;;2.20;2.10;;;12.20;99.90;;;;;;6217336;23;20176;-67
2023/04/30 19:14:19;;;;;;;2.67;2.40;;;12.20;99.90;;;;;;6217265;23;20211;-68
2023/04/30 19:16:46;;;;;;;2.42;2.33;;;12.20;99.90;;;;;;6217199;23;20213;-68
2023/04/30 19:19:13;;;;;;;2.00;1.90;;;12.20;99.90;;;;;;6217908;23;20256;-68
2023/04/30 19:21:42;;;;;;;2.13;2.00;;;12.20;99.90;;;;;;6217132;23;20195;-67
2023/04/30 19:24:09;;;;;;;1.95;1.85;;;12.20;99.90;;;;;;6217278;23;20176;-67
2023/04/30 19:26:36;;;;;;;2.05;1.95;;;12.20;99.90;;;;;;6216697;23;20212;-67
2023/04/30 19:29:03;;;;;;;1.85;1.75;;;12.20;99.90;;;;;;6216572;23;20256;-67
2023/04/30 19:31:30;;;;;;;1.80;1.80;;;12.30;99.90;;;;;;6217103;23;20215;-68
2023/04/30 19:33:59;;;;;;;1.98;1.88;;;12.30;99.90;;;;;;6217212;23;20180;-67
2023/04/30 19:36:27;;;;;;;2.13;2.03;;;12.30;99.90;;;;;;6217766;23;20222;-67
2023/04/30 19:38:55;;;;;;;2.70;2.60;;;12.40;99.90;;;;;;6217359;23;20179;-67
2023/04/30 19:41:21;;;;;;;2.25;2.15;;;12.30;99.90;;;;;;6216911;23;20642;-67
2023/04/30 19:43:48;;;;;;;2.15;2.05;;;12.40;99.90;;;;;;6218220;23;20176;-67
2023/04/30 19:46:15;;;;;;;1.58;1.58;;;12.50;99.90;;;;;;6217160;23;20200;-67
2023/04/30 19:48:44;;;;;;;1.90;1.80;;;12.50;99.90;;;;;;6216948;23;20200;-67
2023/04/30 19:51:11;;;;;;;2.15;2.05;;;12.50;99.90;;;;;;6216985;23;20193;-68
2023/04/30 19:53:37;;;;;;;2.17;2.03;;;12.40;99.90;;;;;;6217062;23;20177;-67
2023/04/30 19:56:06;;;;;;;2.25;2.15;;;12.40;99.90;;;;;;6216837;23;20200;-68
2023/04/30 19:58:32;;;;;;;2.22;1.70;;;12.40;99.90;;;;;;6216819;23;20219;-67
2023/04/30 20:00:59;;;;;;;1.90;1.83;;;12.30;99.90;;;;;;6216804;23;20168;-67
2023/04/30 20:03:26;;;;;;;2.20;2.10;;;12.30;99.90;;;;;;6217712;23;20173;-67
2023/04/30 20:05:52;;;;;;;1.77;1.67;;;12.30;99.90;;;;;;6216419;23;20193;-67
2023/04/30 20:08:20;;;;;;;1.80;1.70;;;12.30;99.90;;;;;;6216574;23;20172;-68
2023/04/30 20:10:48;;;;;;;2.05;1.90;;;12.30;99.90;;;;;;6216011;23;20662;-68
2023/04/30 20:13:17;;;;;;;2.22;2.13;;;12.30;99.90;;;;;;6216451;23;20172;-67
2023/04/30 20:15:43;;;;;;;2.47;2.38;;;12.20;99.90;;;;;;6216319;23;20196;-67
2023/04/30 20:18:11;;;;;;;2.13;2.10;;;12.20;99.90;;;;;;6216384;23;20176;-66
2023/04/30 20:20:38;;;;;;;2.47;2.38;;;12.20;99.90;;;;;;6216013;23;20700;-66
2023/04/30 20:23:16;;;;;;;2.28;2.17;;;12.20;99.90;;;;;;6216369;23;20176;-67
2023/04/30 20:25:44;;;;;;;2.45;2.30;;;12.10;99.90;;;;;;6215730;23;20204;-67
2023/04/30 20:28:11;;;;;;;1.85;1.70;;;12.10;99.90;;;;;;6217322;23;20594;-67
2023/04/30 20:30:41;;;;;;;2.42;2.03;;;12.10;99.90;;;;;;6216302;23;20220;-67
2023/04/30 20:33:08;;;;;;;2.42;2.25;;;12.10;99.90;;;;;;6216313;23;20164;-67
2023/04/30 20:35:35;;;;;;;1.95;1.95;;;12.00;99.90;;;;;;6215873;23;20196;-67
2023/04/30 20:38:02;;;;;;;1.73;1.73;;;12.00;99.90;;;;;;6216271;23;20223;-66
2023/04/30 20:40:29;;;;;;;2.10;2.00;;;11.90;99.90;;;;;;6216193;23;20173;-66
2023/04/30 20:42:56;;;;;;;2.70;2.50;;;11.90;99.90;;;;;;6216308;23;20176;-66
2023/04/30 20:45:23;;;;;;;2.03;1.92;;;11.80;99.90;;;;;;6215746;23;20500;-66
2023/04/30 20:47:51;;;;;;;2.05;2.00;;;11.80;99.90;;;;;;6216064;23;20177;-66
2023/04/30 20:50:19;;;;;;;1.90;1.90;;;11.70;99.90;;;;;;6216132;23;20199;-66
2023/04/30 20:52:46;;;;;;;2.00;1.90;;;11.70;99.90;;;;;;6216112;23;20259;-66
2023/04/30 20:55:12;;;;;;;1.77;1.70;;;11.60;99.90;;;;;;6216083;23;20193;-67
2023/04/30 20:57:39;;;;;;;2.85;2.65;;;11.60;99.90;;;;;;6216292;23;20173;-66
2023/04/30 21:00:08;;;;;;;2.28;2.17;;;11.60;99.90;;;;;;6216026;23;20180;-67
2023/04/30 21:02:35;;;;;;;2.00;1.90;;;11.50;99.90;;;;;;6216796;23;20187;-66
2023/04/30 21:05:05;;;;;;;2.30;2.20;;;11.50;99.90;;;;;;6216086;23;20177;-66
2023/04/30 21:07:33;;;;;;;2.38;2.28;;;11.50;99.90;;;;;;6217072;23;20179;-66
2023/04/30 21:10:00;;;;;;;1.95;1.85;;;11.40;99.90;;;;;;6216064;23;20192;-66
2023/04/30 21:12:26;;;;;;;1.92;1.83;;;11.50;99.90;;;;;;6216136;23;20211;-66
2023/04/30 21:14:54;;;;;;;2.13;2.03;;;11.40;99.90;;;;;;6215945;23;20180;-66
2023/04/30 21:17:20;;;;;;;2.25;2.15;;;11.40;99.90;;;;;;6216034;23;20200;-66
2023/04/30 21:19:47;;;;;;;1.95;1.95;;;11.30;99.90;;;;;;6216029;23;20176;-66
2023/04/30 21:22:15;;;;;;;1.40;1.40;;;11.30;99.90;;;;;;6216105;23;20176;-66
2023/04/30 21:24:42;;;;;;;1.98;1.88;;;11.30;99.90;;;;;;6216062;23;20250;-66
2023/04/30 21:27:09;;;;;;;1.80;1.75;;;11.20;99.90;;;;;;6215469;23;20208;-66
2023/04/30 21:29:36;;;;;;;1.75;1.75;;;11.10;99.90;;;;;;6216270;23;20180;-66
2023/04/30 21:32:03;;;;;;;1.70;1.70;;;11.10;99.90;;;;;;6215571;23;20669;-66
2023/04/30 21:34:31;;;;;;;1.50;1.50;;;11.10;99.90;;;;;;6215931;23;20179;-66
2023/04/30 21:36:58;;;;;;;1.80;1.75;;;11.00;99.90;;;;;;6215825;23;20226;-66
2023/04/30 21:39:26;;;;;;;1.58;1.58;;;11.00;99.90;;;;;;6216144;23;20187;-66
2023/04/30 21:41:53;;;;;;;1.77;1.67;;;10.90;99.90;;;;;;6216094;23;20176;-66
2023/04/30 21:44:20;;;;;;;1.42;1.42;;;10.90;99.90;;;;;;6215690;23;20506;-66
2023/04/30 21:46:47;;;;;;;1.65;1.60;;;10.90;99.90;;;;;;6216134;23;20204;-66
2023/04/30 21:49:15;;;;;;;2.28;1.92;;;10.80;99.90;;;;;;6215962;23;20173;-65
2023/04/30 21:51:42;;;;;;;1.48;1.48;;;10.80;99.90;;;;;;6216086;23;20197;-66
2023/04/30 21:54:08;;;;;;;1.63;1.63;;;10.70;99.90;;;;;;6217429;23;20180;-67
2023/04/30 21:56:37;;;;;;;1.35;1.35;;;10.70;99.90;;;;;;6217829;23;20199;-65
2023/04/30 21:59:03;;;;;;;1.40;1.40;;;10.60;99.90;;;;;;6217916;23;20177;-65
2023/04/30 22:01:30;;;;;;;1.73;1.73;;;10.60;99.90;;;;;;6217863;23;20200;-65
2023/04/30 22:03:57;;;;;;;1.50;1.50;;;10.50;99.90;;;;;;6217744;23;20172;-65